CST,Max TemperatureF,Mean TemperatureF,Min TemperatureF,Max Dew PointF,MeanDew PointF,Min DewpointF,Max Humidity, Mean Humidity, Min Humidity, Max Sea Level PressureIn, Mean Sea Level PressureIn, Min Sea Level PressureIn, Max VisibilityMiles, Mean VisibilityMiles, Min VisibilityMiles, Max Wind SpeedMPH, Mean Wind SpeedMPH, Max Gust SpeedMPH,PrecipitationIn, CloudCover, Events, WindDirDegrees
2013-1-1,35,32,28,36,32,25,100,92,80,30.26,30.15,30.05,10,6,0,13,8,,0.10,7,,4
2013-1-2,30,26,21,25,21,16,93,78,55,30.34,30.28,30.25,10,10,7,13,6,,0.00,0,,355
2013-1-3,41,32,23,30,26,19,100,81,61,30.44,30.38,30.28,10,9,4,9,2,,0.00,0,,240
2013-1-4,44,34,24,30,27,21,100,78,39,30.50,30.44,30.39,10,9,3,9,3,,0.00,0,,233
2013-1-5,44,37,30,37,33,28,100,87,65,30.39,30.32,30.24,10,9,5,15,5,,0.00,5,,187
2013-1-6,46,38,30,36,30,25,100,75,50,30.41,30.30,30.21,10,9,2,15,8,18,0.00,0,,292
2013-1-7,44,34,24,32,28,25,100,81,53,30.46,30.35,30.23,10,8,4,13,3,,0.00,0,,45
2013-1-8,51,38,26,45,35,25,100,85,62,30.27,30.21,30.16,10,7,1,9,3,,0.00,2,,97
2013-1-9,55,50,44,48,45,43,100,86,72,30.40,30.33,30.24,10,2,0,18,7,20,0.03,6,,36
2013-1-10,64,55,46,63,53,43,100,95,87,30.35,30.06,29.89,10,5,1,29,14,30,0.33,7,,98
2013-1-11,60,54,48,55,51,46,94,87,72,30.01,29.94,29.89,10,10,10,23,13,29,0.00,0,,187
2013-1-12,66,54,41,64,55,39,100,97,87,29.94,29.84,29.69,10,6,0,28,10,32,2.76,6,Thunderstorm,180
2013-1-13,39,32,26,37,30,21,100,85,74,30.35,30.09,29.85,10,10,5,24,17,26,0.05,6,Thunderstorm,336
2013-1-14,30,26,23,21,18,16,80,72,60,30.49,30.39,30.34,10,10,5,20,14,22,0.00,2,,7
2013-1-15,30,26,23,25,21,18,100,81,64,30.36,30.25,30.15,10,8,0,18,12,24,0.01,5,,3
2013-1-16,33,26,19,25,20,16,100,76,56,30.23,30.16,30.13,10,10,10,9,5,,0.00,2,,250
2013-1-17,48,34,19,36,27,16,100,78,61,30.52,30.32,30.16,10,10,9,18,6,,0.00,1,,312
2013-1-18,46,36,26,37,29,23,93,81,61,30.57,30.47,30.30,10,10,10,15,6,,0.00,0,,181
2013-1-19,55,45,35,43,35,30,87,75,62,30.30,30.21,30.11,10,10,10,24,15,31,0.00,0,,193
2013-1-20,50,42,33,36,32,25,87,72,40,30.32,30.24,30.18,10,10,10,10,7,,0.00,0,,26
2013-1-21,39,32,26,25,19,16,74,60,39,30.41,30.34,30.25,10,10,10,14,9,18,0.00,0,,348
2013-1-22,30,27,24,19,15,10,80,62,47,30.47,30.40,30.36,10,10,10,12,8,,0.00,3,,57
2013-1-23,48,36,23,37,28,18,100,78,58,30.37,30.27,30.17,10,10,9,12,5,,0.00,0,,127
2013-1-24,37,32,28,32,21,16,81,65,52,30.52,30.38,30.25,10,10,10,23,13,26,0.00,7,,35
2013-1-25,46,38,30,34,29,23,93,74,57,30.26,30.19,30.13,10,10,5,14,7,,0.02,3,,305
2013-1-26,51,40,30,37,31,28,93,73,44,30.37,30.31,30.27,10,10,8,12,6,,0.00,1,,13
2013-1-27,55,47,39,54,43,34,94,86,76,30.27,30.18,30.08,10,10,9,8,6,,0.00,6,,103
2013-1-28,66,62,57,63,58,55,100,91,83,30.09,30.06,30.01,10,10,8,21,18,25,0.00,7,,191
2013-1-29,69,62,53,63,59,54,100,86,73,29.96,29.66,29.48,10,9,2,31,20,38,1.29,7,Thunderstorm,162
2013-1-30,53,43,32,54,37,21,100,77,56,30.04,29.71,29.50,10,10,10,32,14,41,0.02,7,,256
2013-1-31,53,40,26,34,24,10,80,62,38,30.39,30.14,30.04,10,10,9,29,13,36,0.00,1,,269